• Join FlightAware (Why Join?)
  • Login
  • US Flag 
01:35PM EST


 

Airport Tracker/Info


-or-


 

Live Flight TrackerFlight Track Log ✈ DAL3698 ✈ 29-Apr-2013 ✈ KLAN - KMSP

Flight Track Log - Related Links

Times and Time Zones

All times are in EDT time to prevent confusion due to time zone crossing. See the DAL3698 flight status page for this flight to view local times or setup timezone preferences in your user account.

Time Position Orientation Groundspeed Altitude Reporting Facility
EDT Latitude Longitude Course Direction KTS MPH feet Rate Location/Type
07:25AM 42.7789 -84.6631 278° West 183 211 3,100  Level Minneapolis Center
07:26AM 42.7803 -84.7108 272° West 179 206 4,100 1,620 Climbing Cleveland Center
07:26AM 42.7800 -84.7400 269° West 203 234 4,800 2,040 Climbing Chicago Center
07:27AM 42.7276 -84.9480 279° West  Level FlightAware Approximate
07:27AM 42.7825 -84.8408 272° West 257 296 7,200  Level Chicago Center
07:28AM 42.7458 -85.0749 283° West  Level FlightAware Approximate
07:28AM 42.7836 -84.9425 271° West 268 308 9,800  Level Chicago Center
07:29AM 42.7580 -85.2032 276° West  Level FlightAware Approximate
07:29AM 42.7842 -85.0525 270° West 287 330 11,500  Level Chicago Center
07:30AM 42.7688 -85.3375 278° West  Level FlightAware Approximate
07:30AM 42.7847 -85.1978 270° West 319 367 13,100  Level Chicago Center
07:31AM 42.8172 -85.3183 290° West 341 392 14,700 1,440 Climbing Chicago Center
07:32AM 42.8528 -85.4403 292° West 346 398 16,100 1,260 Climbing Chicago Center
07:33AM 42.8906 -85.5658 292° West 357 411 17,400 1,320 Climbing Chicago Center
07:34AM 42.9286 -85.6956 292° West 367 422 18,900 1,260 Climbing Chicago Center
07:35AM 42.9658 -85.8239 292° West 365 420 20,000 1,080 Climbing Chicago Center
07:36AM 43.0097 -85.9708 292° West 370 426 21,200 900 Climbing Chicago Center
07:37AM 43.0464 -86.0989 291° West 376 433 21,900 660 Climbing Chicago Center
07:38AM 43.0861 -86.2381 291° West 386 444 22,600 660 Climbing Chicago Center
07:39AM 43.1256 -86.3764 291° West 389 448 23,300 660 Climbing Chicago Center
07:40AM 43.1658 -86.5169 291° West 397 457 24,000 660 Climbing Chicago Center
07:41AM 43.2056 -86.6589 291° West 399 459 24,700 720 Climbing Chicago Center
07:42AM 43.2528 -86.8281 291° West 397 457 25,500 720 Climbing Chicago Center
07:44AM 43.2931 -86.9706 291° West 401 461 26,200 660 Climbing Chicago Center
07:45AM 43.3342 -87.1103 292° West 398 458 26,900 660 Climbing Chicago Center
07:46AM 43.3728 -87.2506 291° West 396 456 27,600 480 Climbing Chicago Center
07:47AM 43.4078 -87.3856 290° West 391 450 28,000 180 Climbing Chicago Center
07:48AM 43.4544 -87.5536 291° West 399 459 28,000  Level Chicago Center
07:49AM 43.4944 -87.6997 291° West 406 467 28,000  Level Chicago Center
07:50AM 43.5339 -87.8450 291° West 405 466 28,000  Level Chicago Center
07:51AM 43.5728 -87.9914 290° West 406 467 28,000  Level Chicago Center
07:52AM 43.6119 -88.1375 290° West 407 468 28,000  Level Chicago Center
07:53AM 43.6511 -88.2828 290° West 407 468 28,000  Level Chicago Center
07:54AM 43.6819 -88.4042 289° West 408 470 28,000  Level Minneapolis Center
07:55AM 43.7264 -88.5742 290° West 408 470 28,000  Level Minneapolis Center
07:56AM 43.7700 -88.7439 290° West 404 465 28,000  Level Chicago Center
07:57AM 43.8078 -88.8894 290° West 404 465 28,000  Level Minneapolis Center
07:58AM 43.8453 -89.0350 290° West 403 464 28,000  Level Minneapolis Center
07:59AM 43.8742 -89.1575 288° West 402 463 28,000  Level Minneapolis Center
08:00AM 43.9178 -89.3281 290° West 402 463 28,000  Level Minneapolis Center
08:01AM 43.9547 -89.4711 290° West 397 457 28,000  Level Minneapolis Center
08:02AM 43.9917 -89.6178 289° West 401 461 28,000  Level Minneapolis Center
08:03AM 44.0269 -89.7636 289° West 400 460 28,000  Level Minneapolis Center
08:04AM 44.0633 -89.9094 289° West 399 459 28,000  Level Minneapolis Center
08:05AM 44.1172 -90.0439 299° West 399 459 28,000  Level Minneapolis Center
08:06AM 44.1647 -90.1867 295° West 405 466 28,000  Level Minneapolis Center
08:07AM 44.2133 -90.3247 296° West 399 459 28,000  Level Minneapolis Center
08:08AM 44.2703 -90.4867 296° West 398 458 28,000  Level Minneapolis Center
08:09AM 44.3178 -90.6250 296° West 396 456 28,000  Level Minneapolis Center
08:10AM 44.3658 -90.7636 296° West 396 456 28,000 -780 Level Minneapolis Center
08:11AM 44.4136 -90.9067 295° West 402 463 26,500 -1,440 Descending Minneapolis Center
08:12AM 44.4569 -91.0300 296° West 402 463 25,100 -1,680 Descending Minneapolis Center
08:13AM 44.5136 -91.1964 296° West 399 459 23,200 -1,740 Descending Minneapolis Center
08:14AM 44.5586 -91.3325 295° West 392 451 21,600 -1,620 Descending Minneapolis Center
08:15AM 44.6036 -91.4681 295° West 388 447 20,000 -1,620 Descending Minneapolis Center
08:16AM 44.6492 -91.6022 296° West 379 436 18,300 -1,620 Descending Minneapolis Center
08:17AM 44.6906 -91.7283 295° West 367 422 16,700 -1,620 Descending Minneapolis Center
08:18AM 44.7331 -91.8564 295° West 364 419 15,100 -1,620 Descending Minneapolis Center
08:19AM 44.7744 -91.9822 295° West 358 412 13,500 -1,620 Descending Minneapolis Center
08:20AM 44.8144 -92.1050 295° West 346 398 11,900 -1,680 Descending Minneapolis Center
08:21AM 44.8614 -92.2508 294° West 343 395 10,100 -960 Descending Minneapolis Center
08:22AM 44.9006 -92.3736 294° West 348 400 10,000 -60 Descending Minneapolis Center
08:23AM 44.8633 -92.4894 246° West 336 387 10,000 -480 Level Minneapolis Center
08:24AM 44.8131 -92.5731 230° Southwest 280 322 9,100 -1,020 Descending Minneapolis Center
08:25AM 44.7864 -92.6522 245° Southwest 284 327 8,000 -1,080 Descending Minneapolis Center
08:26AM 44.7542 -92.7731 249° West 276 318 7,000 -1,140 Descending Minneapolis Center
08:27AM 44.7319 -92.8736 253° West 271 312 5,700 -1,020 Descending Minneapolis Center
08:28AM 44.7461 -92.9489 285° West 258 297 5,000 -960 Descending Minneapolis Center
08:29AM 44.7986 -93.0397 309° West 214 246 3,800 -1,200 Descending Minneapolis Center